Time;durP1;ratioP1;P1;durP2;ratioP2;P2;SDS_P1;SDS_P2;PMS_P1;PMS_P2;Temp;Humidity;BMP_temperature;BMP_pressure;BME280_temperature;BME280_humidity;BME280_pressure;Samples;Min_cycle;Max_cycle;Signal;HPM_P1;HPM_P2
2024/03/06 00:00:15;;;;;;;3.63;2.28;;;17.70;67.90;;;;;;5982813;23;20158;-84
2024/03/06 00:06:22;;;;;;;4.30;2.35;;;17.70;67.70;;;;;;5898682;24;20271;-85
2024/03/06 00:19:25;;;;;;;3.38;1.88;;;17.70;67.90;;;;;;5966651;23;20194;-84
2024/03/06 00:25:54;;;;;;;4.75;1.80;;;17.70;68.00;;;;;;6039720;23;20161;-85
2024/03/06 00:36:04;;;;;;;2.85;2.15;;;17.70;68.10;;;;;;5982928;24;20201;-85
2024/03/06 00:42:20;;;;;;;2.85;2.10;;;17.60;67.90;;;;;;6039838;23;20182;-84
2024/03/06 01:09:09;;;;;;;3.83;2.47;;;17.60;67.90;;;;;;5982488;24;20213;-85
2024/03/06 01:11:59;;;;;;;3.85;2.50;;;17.60;68.00;;;;;;5976611;23;20194;-84
2024/03/06 01:15:27;;;;;;;3.15;2.33;;;17.60;68.10;;;;;;6039151;23;20165;-84
2024/03/06 01:36:01;;;;;;;2.30;2.03;;;17.50;67.90;;;;;;6039072;23;20192;-84
2024/03/06 01:45:57;;;;;;;3.97;2.10;;;17.50;67.60;;;;;;6156005;23;20654;-84
2024/03/06 01:52:50;;;;;;;3.22;2.17;;;17.50;67.80;;;;;;6278735;22;20282;-86
2024/03/06 02:09:21;;;;;;;2.90;2.30;;;17.50;67.90;;;;;;6125279;23;20227;-85
2024/03/06 02:29:56;;;;;;;2.88;2.22;;;17.50;67.80;;;;;;6126194;23;20158;-84
2024/03/06 02:32:38;;;;;;;3.15;2.38;;;17.50;67.90;;;;;;6155037;23;20217;-84
2024/03/06 02:49:43;;;;;;;3.97;2.30;;;17.40;67.80;;;;;;6096066;23;20261;-84
2024/03/06 03:10:26;;;;;;;4.43;2.40;;;17.40;67.20;;;;;;5981442;23;20269;-84
2024/03/06 03:23:11;;;;;;;2.20;1.90;;;17.40;67.50;;;;;;5976571;23;20206;-84
2024/03/06 03:57:08;;;;;;;4.15;2.30;;;17.40;67.50;;;;;;5869324;24;20281;-84
2024/03/06 04:14:01;;;;;;;3.80;1.92;;;17.40;67.20;;;;;;5971535;24;20515;-84
2024/03/06 04:42:12;;;;;;;2.60;2.05;;;17.30;67.40;;;;;;6154455;23;20191;-84
2024/03/06 05:42:46;;;;;;;2.83;2.20;;;17.30;67.30;;;;;;6310097;22;20135;-84
2024/03/06 06:11:44;;;;;;;3.45;1.90;;;17.20;67.40;;;;;;6156336;23;20527;-84
2024/03/06 06:14:14;;;;;;;4.25;2.05;;;17.30;67.20;;;;;;6132387;23;20168;-84
2024/03/06 06:17:38;;;;;;;2.72;2.28;;;17.20;67.40;;;;;;6107212;23;20183;-84
2024/03/06 06:20:27;;;;;;;3.70;2.00;;;17.20;67.30;;;;;;6120584;23;20160;-84
2024/03/06 06:22:58;;;;;;;3.10;2.17;;;17.20;67.20;;;;;;6098188;23;20226;-85
2024/03/06 06:26:10;;;;;;;2.53;2.20;;;17.30;67.00;;;;;;6101472;23;20239;-84
2024/03/06 06:29:25;;;;;;;3.95;2.20;;;17.30;67.20;;;;;;6126591;23;20255;-85
2024/03/06 06:32:29;;;;;;;2.80;2.13;;;17.20;67.00;;;;;;6096345;23;20153;-84
2024/03/06 06:38:39;;;;;;;2.75;1.92;;;17.30;67.30;;;;;;6095922;23;20152;-85
2024/03/06 06:41:38;;;;;;;2.50;2.08;;;17.20;67.00;;;;;;6131643;23;20154;-85
2024/03/06 06:47:51;;;;;;;2.53;2.08;;;17.20;67.20;;;;;;6245895;23;20256;-84
2024/03/06 06:51:07;;;;;;;;;;;;;;;;;;;;;
2024/03/06 06:54:08;;;;;;;;;;;;;;;;;;;;;
2024/03/06 07:07:27;;;;;;;2.20;1.80;;;17.30;66.70;;;;;;6311871;22;20150;-85
2024/03/06 07:17:40;;;;;;;3.55;2.15;;;17.30;66.70;;;;;;6023123;23;20205;-85
2024/03/06 07:20:47;;;;;;;2.42;1.88;;;17.30;66.80;;;;;;5959611;23;20163;-85
2024/03/06 07:23:13;;;;;;;2.67;1.98;;;17.30;66.80;;;;;;6031265;23;20203;-86
2024/03/06 07:25:39;;;;;;;2.60;1.92;;;17.40;65.80;;;;;;6056268;23;20216;-90
2024/03/06 07:28:05;;;;;;;3.17;2.10;;;17.50;65.10;;;;;;6076972;23;20172;-87
2024/03/06 07:30:31;;;;;;;2.67;2.28;;;17.50;66.20;;;;;;6050274;23;20235;-85
2024/03/06 07:33:00;;;;;;;2.30;2.10;;;17.50;65.70;;;;;;6048050;23;20165;-88
2024/03/06 07:35:26;;;;;;;2.63;2.03;;;17.50;65.80;;;;;;6047584;23;20169;-84
2024/03/06 07:38:04;;;;;;;4.53;2.22;;;17.50;65.30;;;;;;6023574;23;20219;-84
2024/03/06 07:40:33;;;;;;;2.75;2.15;;;17.50;65.80;;;;;;6046369;23;20223;-87
2024/03/06 07:42:59;;;;;;;2.30;1.95;;;17.50;65.40;;;;;;5984684;23;20217;-84
2024/03/06 07:45:29;;;;;;;2.55;2.10;;;17.50;65.80;;;;;;6037110;23;20169;-87
2024/03/06 07:47:57;;;;;;;3.63;1.83;;;17.50;65.40;;;;;;6019405;23;20257;-86
2024/03/06 08:01:17;;;;;;;5.90;2.15;;;17.50;65.70;;;;;;6186402;23;20177;-84
2024/03/06 08:03:44;;;;;;;10.38;2.17;;;17.50;65.20;;;;;;6163021;23;20158;-84
2024/03/06 08:06:53;;;;;;;4.97;2.45;;;17.70;65.00;;;;;;6161978;23;20143;-85
2024/03/06 08:09:29;;;;;;;5.97;2.00;;;17.70;64.90;;;;;;6161083;23;20166;-84
2024/03/06 08:11:57;;;;;;;3.45;2.10;;;17.70;65.00;;;;;;6114955;23;20139;-85
2024/03/06 08:14:23;;;;;;;4.75;1.83;;;17.80;64.70;;;;;;6194886;22;20171;-85
2024/03/06 08:16:56;;;;;;;2.70;2.08;;;17.80;64.30;;;;;;6252080;22;20176;-84
2024/03/06 08:19:25;;;;;;;4.40;1.85;;;17.70;65.20;;;;;;6179665;22;20685;-84
2024/03/06 08:21:51;;;;;;;2.60;1.52;;;17.60;65.20;;;;;;6202832;22;20263;-84
2024/03/06 08:24:29;;;;;;;3.92;1.75;;;17.70;64.70;;;;;;6280594;22;20192;-84
2024/03/06 08:26:59;;;;;;;5.93;1.92;;;17.70;64.30;;;;;;6230718;22;20223;-85
2024/03/06 08:29:29;;;;;;;2.92;2.28;;;17.70;64.40;;;;;;6208549;22;20155;-84
2024/03/06 08:32:28;;;;;;;5.25;2.45;;;17.70;64.60;;;;;;6182796;22;20198;-84
2024/03/06 08:34:55;;;;;;;2.90;1.98;;;17.80;64.10;;;;;;6218810;23;20165;-84
2024/03/06 08:37:22;;;;;;;3.15;1.90;;;17.80;63.40;;;;;;6169647;23;20181;-84
2024/03/06 08:39:54;;;;;;;5.50;2.03;;;17.90;63.60;;;;;;6219194;23;20162;-84
2024/03/06 08:42:23;;;;;;;3.20;1.88;;;17.90;63.50;;;;;;6119813;23;20150;-83
2024/03/06 08:44:56;;;;;;;3.03;1.85;;;18.00;62.90;;;;;;6167995;23;20162;-84
2024/03/06 08:47:31;;;;;;;3.67;1.92;;;17.90;63.30;;;;;;6168784;23;20145;-83
2024/03/06 08:50:11;;;;;;;2.55;1.83;;;17.90;63.50;;;;;;6217586;23;20138;-84
2024/03/06 08:52:41;;;;;;;3.78;2.00;;;18.00;62.50;;;;;;6138650;23;20158;-84
2024/03/06 08:55:07;;;;;;;3.75;1.90;;;18.00;63.00;;;;;;6140229;23;20557;-85
2024/03/06 08:57:36;;;;;;;5.05;2.00;;;18.00;63.50;;;;;;6134170;23;20218;-84
2024/03/06 09:00:11;;;;;;;3.28;1.58;;;18.00;64.20;;;;;;6110456;23;20218;-84
2024/03/06 09:02:42;;;;;;;3.35;1.80;;;17.90;63.80;;;;;;6046234;23;20500;-84
2024/03/06 09:05:15;;;;;;;8.68;1.95;;;17.90;63.50;;;;;;6046799;23;20184;-85
2024/03/06 09:07:41;;;;;;;4.07;1.60;;;18.00;64.10;;;;;;6023012;23;20181;-83
2024/03/06 09:10:19;;;;;;;2.80;1.95;;;18.00;63.00;;;;;;6047922;23;20169;-84
2024/03/06 09:13:07;;;;;;;3.47;1.90;;;18.10;63.20;;;;;;6050653;23;20196;-85
2024/03/06 09:18:57;;;;;;;3.42;1.80;;;18.00;63.40;;;;;;5929991;24;20606;-84
2024/03/06 09:21:29;;;;;;;3.05;1.92;;;18.10;62.90;;;;;;5879965;24;20161;-85
2024/03/06 09:24:03;;;;;;;3.03;1.90;;;18.10;63.00;;;;;;5879684;24;20209;-85
2024/03/06 09:26:31;;;;;;;1.95;1.40;;;18.10;63.00;;;;;;5881113;24;20214;-85
2024/03/06 09:28:57;;;;;;;2.38;1.60;;;18.10;62.80;;;;;;5873396;24;20168;-85
2024/03/06 09:31:23;;;;;;;5.18;2.08;;;18.10;62.70;;;;;;5904304;24;20244;-83
2024/03/06 09:33:49;;;;;;;3.50;1.90;;;18.10;63.10;;;;;;5903371;24;20176;-84
2024/03/06 09:36:16;;;;;;;3.70;1.90;;;18.10;63.70;;;;;;5927407;24;20645;-84
2024/03/06 09:38:50;;;;;;;2.63;1.67;;;18.10;63.30;;;;;;5927441;24;20648;-84
2024/03/06 09:41:22;;;;;;;4.45;1.75;;;18.00;62.90;;;;;;5905474;24;20165;-85
2024/03/06 09:43:53;;;;;;;2.92;1.77;;;18.00;63.40;;;;;;5912859;23;20166;-86
2024/03/06 09:46:21;;;;;;;3.08;1.77;;;18.10;62.70;;;;;;6029934;23;20167;-84
2024/03/06 09:49:01;;;;;;;3.60;1.73;;;18.10;63.00;;;;;;6136879;23;20190;-85
2024/03/06 09:51:30;;;;;;;3.08;1.77;;;18.10;63.10;;;;;;6163527;23;20166;-85
2024/03/06 09:53:56;;;;;;;3.70;1.90;;;18.20;63.40;;;;;;6139696;23;20135;-85
2024/03/06 09:56:24;;;;;;;4.60;2.10;;;18.10;63.70;;;;;;6226975;22;20215;-85
2024/03/06 09:58:55;;;;;;;4.32;1.83;;;18.20;63.40;;;;;;6229221;22;20149;-85
2024/03/06 10:01:21;;;;;;;6.55;2.00;;;18.10;64.50;;;;;;6227518;22;20148;-84
2024/03/06 10:03:47;;;;;;;4.88;1.95;;;18.00;64.90;;;;;;6226260;22;20145;-84
2024/03/06 10:06:39;;;;;;;6.05;1.92;;;18.00;66.10;;;;;;6224720;22;20156;-84
2024/03/06 10:09:20;;;;;;;9.38;1.80;;;18.00;65.40;;;;;;6130419;23;20191;-85
2024/03/06 10:11:47;;;;;;;6.32;1.83;;;18.00;65.60;;;;;;6105615;23;20243;-84
2024/03/06 10:15:04;;;;;;;;;;;;;;;;;;;;;
2024/03/06 10:17:45;;;;;;;2.65;1.85;;;18.00;65.50;;;;;;5979837;24;20318;-85
2024/03/06 10:20:34;;;;;;;;;;;;;;;;;;;;;
2024/03/06 10:23:08;;;;;;;2.55;1.52;;;18.20;64.70;;;;;;5921311;24;20257;-85
2024/03/06 10:25:45;;;;;;;3.63;1.80;;;18.20;64.90;;;;;;5897585;24;20177;-85
2024/03/06 10:28:22;;;;;;;3.38;1.77;;;18.10;64.70;;;;;;5897189;24;20243;-85
2024/03/06 10:31:24;;;;;;;;;;;;;;;;;;;;;
2024/03/06 10:34:06;;;;;;;2.70;1.70;;;18.10;65.40;;;;;;5892051;24;20290;-85
2024/03/06 10:36:45;;;;;;;3.30;1.60;;;18.10;64.60;;;;;;5897885;24;20292;-85
2024/03/06 10:39:38;;;;;;;;;;;;;;;;;;;;;
2024/03/06 10:42:21;;;;;;;3.50;1.70;;;18.00;64.90;;;;;;5928218;24;20247;-85
2024/03/06 10:44:58;;;;;;;2.33;1.63;;;18.00;64.60;;;;;;5927093;23;20174;-84
2024/03/06 10:47:30;;;;;;;2.50;1.40;;;18.00;65.10;;;;;;5994551;23;20165;-84
2024/03/06 10:50:00;;;;;;;3.45;1.80;;;18.00;65.10;;;;;;6103886;23;20242;-84
2024/03/06 10:53:02;;;;;;;3.05;1.60;;;18.00;64.70;;;;;;6154241;23;20140;-85
2024/03/06 10:55:37;;;;;;;3.38;1.80;;;18.00;65.00;;;;;;6162636;23;20153;-84
2024/03/06 10:58:15;;;;;;;3.38;1.80;;;18.10;64.10;;;;;;6137765;23;20161;-85
2024/03/06 11:01:55;;;;;;;3.33;1.80;;;18.10;64.40;;;;;;6163401;23;20153;-85
2024/03/06 11:04:30;;;;;;;2.15;1.80;;;18.20;64.10;;;;;;6070196;23;20165;-83
2024/03/06 11:07:06;;;;;;;;;;;;;;;;;;;;;
2024/03/06 11:09:35;;;;;;;2.17;1.60;;;18.10;64.30;;;;;;6042233;23;20232;-84
2024/03/06 11:12:50;;;;;;;4.63;1.83;;;18.10;64.90;;;;;;6046079;23;20153;-84
2024/03/06 11:15:29;;;;;;;4.20;1.83;;;18.10;65.10;;;;;;6067616;23;20184;-84
2024/03/06 11:18:18;;;;;;;3.15;1.90;;;18.10;64.90;;;;;;6066883;23;20180;-84
2024/03/06 11:21:53;;;;;;;5.15;1.63;;;18.10;64.40;;;;;;6021857;23;20153;-85
2024/03/06 11:24:16;;;;;;;3.72;1.60;;;18.10;64.90;;;;;;6091144;23;20196;-84
2024/03/06 11:27:15;;;;;;;4.63;1.70;;;18.10;64.60;;;;;;6097647;23;20243;-84
2024/03/06 11:30:10;;;;;;;3.60;1.88;;;18.00;65.50;;;;;;6072999;23;20158;-85
2024/03/06 11:33:02;;;;;;;3.40;1.50;;;17.90;65.70;;;;;;6041572;23;20542;-85
2024/03/06 11:35:29;;;;;;;2.63;2.00;;;17.90;66.00;;;;;;6009903;23;20166;-84
2024/03/06 11:38:01;;;;;;;3.20;1.90;;;17.90;65.50;;;;;;5913282;23;20624;-85
2024/03/06 11:40:30;;;;;;;2.20;1.67;;;17.90;65.60;;;;;;5957944;23;20283;-84
2024/03/06 11:43:26;;;;;;;2.55;1.52;;;17.80;65.80;;;;;;6066354;23;20497;-85
2024/03/06 11:45:53;;;;;;;2.20;1.60;;;17.90;65.30;;;;;;6065505;23;20244;-85
2024/03/06 11:48:21;;;;;;;1.63;1.40;;;17.90;65.80;;;;;;6064769;23;20157;-85
2024/03/06 11:50:47;;;;;;;4.18;1.90;;;17.80;65.60;;;;;;6065574;23;20245;-85
2024/03/06 11:53:14;;;;;;;3.17;1.92;;;17.80;65.80;;;;;;6071575;23;20181;-85
2024/03/06 11:55:40;;;;;;;3.25;1.70;;;17.90;65.80;;;;;;6006820;23;20197;-85
2024/03/06 11:58:08;;;;;;;2.78;1.60;;;17.90;65.70;;;;;;6130284;23;20190;-85
2024/03/06 12:00:33;;;;;;;2.35;1.75;;;17.80;65.80;;;;;;6187865;23;20154;-84
2024/03/06 12:02:59;;;;;;;4.20;1.70;;;17.80;65.60;;;;;;6167744;23;20721;-84
2024/03/06 12:05:27;;;;;;;1.27;1.10;;;17.90;65.60;;;;;;6220853;22;20134;-85
2024/03/06 12:07:54;;;;;;;1.60;1.50;;;17.90;65.20;;;;;;6225320;22;20125;-84
2024/03/06 12:10:20;;;;;;;3.40;1.77;;;17.90;65.40;;;;;;6228217;22;20216;-84
2024/03/06 12:12:48;;;;;;;4.35;1.60;;;17.90;65.00;;;;;;6252820;22;20168;-84
2024/03/06 12:15:18;;;;;;;1.83;1.60;;;17.90;65.30;;;;;;6153520;22;20180;-81
2024/03/06 12:17:46;;;;;;;1.73;1.60;;;17.90;65.40;;;;;;6281073;22;20128;-84
2024/03/06 12:20:15;;;;;;;3.95;1.60;;;17.90;65.30;;;;;;6201991;22;20141;-84
2024/03/06 12:22:45;;;;;;;2.00;1.60;;;17.90;64.90;;;;;;6175675;22;20588;-85
2024/03/06 12:25:17;;;;;;;2.72;1.38;;;17.90;65.00;;;;;;6137467;22;20188;-84
2024/03/06 12:27:47;;;;;;;2.38;1.65;;;17.90;65.40;;;;;;6250484;22;20129;-84
2024/03/06 12:30:17;;;;;;;1.75;1.38;;;17.90;65.30;;;;;;6176259;22;20160;-84
2024/03/06 12:33:05;;;;;;;1.48;1.30;;;17.90;65.30;;;;;;6228562;22;20152;-84
2024/03/06 12:35:35;;;;;;;2.35;1.58;;;17.90;65.20;;;;;;6139897;22;20565;-83
2024/03/06 12:38:13;;;;;;;3.17;1.60;;;17.90;65.00;;;;;;6176441;22;20203;-84
2024/03/06 12:41:11;;;;;;;3.50;1.50;;;17.90;64.80;;;;;;6252884;22;20131;-83
2024/03/06 12:43:36;;;;;;;1.92;1.42;;;18.00;65.00;;;;;;6282540;22;20129;-83
2024/03/06 12:46:04;;;;;;;5.20;1.52;;;18.00;65.00;;;;;;6254284;22;20220;-83
2024/03/06 12:48:30;;;;;;;3.15;1.60;;;17.90;64.80;;;;;;6228926;22;20149;-83
2024/03/06 12:51:33;;;;;;;2.25;1.40;;;17.90;65.00;;;;;;6228213;22;20149;-84
2024/03/06 12:54:00;;;;;;;2.40;1.60;;;18.00;65.00;;;;;;6135577;23;20148;-83
2024/03/06 12:57:00;;;;;;;3.05;1.42;;;17.90;64.70;;;;;;6162512;23;20182;-83
2024/03/06 12:59:28;;;;;;;1.90;1.45;;;18.00;64.60;;;;;;6164051;23;20588;-83
2024/03/06 13:01:54;;;;;;;1.58;1.40;;;17.90;64.30;;;;;;6163441;23;20155;-83
2024/03/06 13:04:20;;;;;;;2.80;1.80;;;18.00;63.70;;;;;;6138125;23;20189;-83
2024/03/06 13:06:45;;;;;;;1.85;1.45;;;18.10;64.20;;;;;;6140211;23;20582;-83
2024/03/06 13:12:20;;;;;;;3.22;1.60;;;18.10;63.80;;;;;;6129590;23;20252;-84
2024/03/06 13:14:48;;;;;;;3.53;1.55;;;18.10;64.30;;;;;;6127622;23;20163;-83
2024/03/06 13:17:24;;;;;;;1.98;1.67;;;18.00;63.70;;;;;;6105292;23;20172;-84
2024/03/06 13:19:52;;;;;;;1.83;1.45;;;18.00;64.40;;;;;;6101462;23;20190;-84
2024/03/06 13:22:19;;;;;;;1.92;1.30;;;18.00;64.40;;;;;;6130092;23;20159;-84
2024/03/06 13:24:57;;;;;;;2.97;1.60;;;18.00;64.40;;;;;;6105819;23;20227;-85
2024/03/06 13:27:29;;;;;;;3.15;1.70;;;18.00;64.30;;;;;;6120341;23;20641;-84
2024/03/06 13:29:59;;;;;;;2.13;1.60;;;18.10;64.40;;;;;;6140117;23;20176;-84
2024/03/06 13:32:33;;;;;;;1.88;1.42;;;18.10;64.30;;;;;;6167674;23;20150;-84
2024/03/06 13:35:12;;;;;;;1.92;1.63;;;18.00;63.40;;;;;;6170097;23;20209;-85
2024/03/06 13:37:43;;;;;;;3.15;1.60;;;18.00;64.00;;;;;;6163042;23;20679;-86
2024/03/06 13:40:10;;;;;;;3.55;1.38;;;18.00;63.30;;;;;;6113381;23;20234;-86
2024/03/06 13:42:41;;;;;;;2.83;1.63;;;18.00;64.00;;;;;;6199902;23;20169;-84
2024/03/06 13:45:26;;;;;;;3.38;1.50;;;18.10;63.90;;;;;;6205394;23;20138;-85
2024/03/06 13:47:54;;;;;;;1.77;1.42;;;18.10;64.00;;;;;;6209461;23;20161;-85
2024/03/06 13:50:25;;;;;;;3.30;1.50;;;18.20;63.80;;;;;;6228576;23;20192;-84
2024/03/06 13:52:53;;;;;;;2.28;1.60;;;18.10;64.30;;;;;;6198915;23;20591;-84
2024/03/06 13:55:28;;;;;;;2.75;1.27;;;18.20;63.40;;;;;;6224149;23;20145;-86
2024/03/06 13:58:01;;;;;;;2.50;1.63;;;18.10;63.60;;;;;;6136629;23;20161;-84
2024/03/06 14:00:29;;;;;;;3.05;1.45;;;18.20;63.40;;;;;;6086374;23;20603;-83
2024/03/06 14:02:58;;;;;;;2.17;1.42;;;18.20;62.70;;;;;;6108652;23;20162;-85
2024/03/06 14:05:26;;;;;;;2.60;1.30;;;18.20;62.50;;;;;;6131618;23;20148;-84
2024/03/06 14:07:52;;;;;;;2.47;1.65;;;18.20;63.30;;;;;;6136825;23;20158;-85
2024/03/06 14:10:27;;;;;;;3.30;1.33;;;18.20;62.90;;;;;;6111898;23;20143;-86
2024/03/06 14:12:54;;;;;;;2.10;1.40;;;18.20;63.50;;;;;;6136855;23;20918;-84
2024/03/06 14:15:23;;;;;;;1.73;1.20;;;18.20;63.00;;;;;;6113712;23;20246;-85
2024/03/06 14:17:49;;;;;;;1.80;1.48;;;18.10;63.20;;;;;;6114165;23;20458;-84
2024/03/06 14:20:15;;;;;;;1.70;1.23;;;18.20;63.20;;;;;;6137975;23;20217;-85
2024/03/06 14:22:55;;;;;;;1.98;1.38;;;18.10;63.20;;;;;;6112929;23;20162;-85
2024/03/06 14:25:22;;;;;;;1.80;1.58;;;18.10;63.30;;;;;;6135608;23;20201;-84
2024/03/06 14:27:56;;;;;;;3.65;1.70;;;18.10;63.60;;;;;;6174012;22;20153;-84
2024/03/06 14:30:22;;;;;;;2.40;1.50;;;18.20;63.30;;;;;;6197003;23;20153;-84
2024/03/06 14:32:48;;;;;;;1.85;1.42;;;18.20;63.40;;;;;;6219469;23;20164;-86
2024/03/06 14:35:14;;;;;;;2.83;1.20;;;18.20;63.50;;;;;;6194503;23;20204;-85
2024/03/06 14:37:40;;;;;;;3.20;1.55;;;18.20;63.20;;;;;;6193789;23;20277;-86
2024/03/06 14:40:08;;;;;;;3.45;1.30;;;18.20;63.30;;;;;;6194907;23;20173;-84
2024/03/06 14:42:38;;;;;;;4.22;1.50;;;18.20;63.60;;;;;;6194456;23;20161;-84
2024/03/06 14:45:05;;;;;;;5.00;1.50;;;18.10;64.30;;;;;;6194599;23;20168;-84
2024/03/06 14:47:38;;;;;;;1.40;1.15;;;18.30;63.50;;;;;;6195191;23;20138;-85
2024/03/06 14:50:08;;;;;;;5.05;1.60;;;18.20;63.30;;;;;;6159788;23;20162;-84
2024/03/06 14:52:36;;;;;;;6.45;1.40;;;18.30;62.10;;;;;;6135939;23;20205;-86
2024/03/06 14:55:03;;;;;;;3.38;1.30;;;18.50;61.60;;;;;;6193165;23;20157;-84
2024/03/06 14:57:29;;;;;;;4.32;1.58;;;18.40;61.80;;;;;;6219716;23;20211;-84
2024/03/06 14:59:57;;;;;;;2.63;1.45;;;18.40;62.20;;;;;;6194466;23;20153;-86
2024/03/06 15:02:23;;;;;;;4.05;1.40;;;18.30;62.70;;;;;;6189521;23;20156;-84
2024/03/06 15:05:35;;;;;;;3.05;1.38;;;18.40;62.30;;;;;;6164403;23;20158;-84
2024/03/06 15:08:06;;;;;;;6.05;1.52;;;18.30;63.00;;;;;;6152908;23;20159;-84
2024/03/06 15:10:34;;;;;;;2.65;1.52;;;18.30;63.30;;;;;;6154736;23;20255;-85
2024/03/06 15:13:00;;;;;;;3.78;1.33;;;18.20;63.20;;;;;;6154050;23;20242;-86
2024/03/06 15:15:45;;;;;;;8.07;1.70;;;18.20;63.30;;;;;;6129704;23;20630;-85
2024/03/06 15:18:13;;;;;;;3.05;1.70;;;18.30;63.20;;;;;;6174728;23;20159;-84
2024/03/06 15:20:39;;;;;;;2.10;1.17;;;18.20;63.20;;;;;;6156822;23;20178;-85
2024/03/06 15:23:08;;;;;;;4.13;1.58;;;18.20;62.80;;;;;;6153656;23;20187;-86
2024/03/06 15:25:34;;;;;;;3.42;1.42;;;18.30;62.70;;;;;;6129785;23;20500;-86
2024/03/06 15:28:01;;;;;;;3.10;1.42;;;18.30;62.80;;;;;;6097690;23;20228;-86
2024/03/06 15:30:31;;;;;;;4.07;1.20;;;18.30;63.00;;;;;;6101072;23;20153;-85
2024/03/06 15:32:58;;;;;;;2.30;1.30;;;18.30;62.30;;;;;;6033907;23;20161;-86
2024/03/06 15:35:24;;;;;;;3.38;1.40;;;18.30;62.80;;;;;;5940758;23;20228;-86
2024/03/06 15:37:54;;;;;;;2.92;1.10;;;18.30;63.10;;;;;;5908950;23;20174;-86
2024/03/06 15:40:31;;;;;;;3.15;1.30;;;18.30;63.00;;;;;;6052520;23;20189;-86
2024/03/06 15:43:02;;;;;;;3.35;1.25;;;18.30;62.40;;;;;;6051921;23;20155;-87
2024/03/06 15:45:57;;;;;;;5.95;1.63;;;18.30;62.60;;;;;;6112155;23;20147;-86
2024/03/06 15:48:28;;;;;;;3.58;1.33;;;18.30;61.70;;;;;;6135082;23;20152;-85
2024/03/06 15:50:54;;;;;;;4.35;1.55;;;18.40;62.40;;;;;;6137025;23;20131;-86
2024/03/06 15:53:20;;;;;;;3.08;1.40;;;18.30;61.60;;;;;;6108376;23;20163;-86
2024/03/06 15:55:46;;;;;;;4.18;1.50;;;18.40;61.90;;;;;;6108541;23;20201;-86
2024/03/06 15:58:12;;;;;;;4.43;1.30;;;18.40;61.90;;;;;;6113752;23;20158;-85
2024/03/06 16:00:40;;;;;;;4.78;1.20;;;18.40;61.60;;;;;;6138233;23;20155;-86
2024/03/06 16:03:08;;;;;;;5.60;1.75;;;18.40;62.00;;;;;;6186120;23;20155;-86
2024/03/06 16:05:47;;;;;;;6.32;1.52;;;18.40;61.80;;;;;;6162391;23;20245;-85
2024/03/06 16:11:03;;;;;;;8.25;1.67;;;18.30;62.70;;;;;;6138110;23;20190;-88
2024/03/06 16:13:37;;;;;;;9.82;1.48;;;18.30;62.50;;;;;;6132786;23;20155;-86
2024/03/06 16:16:12;;;;;;;8.98;1.55;;;18.30;61.40;;;;;;6131970;23;20223;-86
2024/03/06 16:18:40;;;;;;;12.00;2.15;;;18.30;62.40;;;;;;6132719;23;20143;-87
2024/03/06 16:21:11;;;;;;;14.80;2.55;;;18.30;63.20;;;;;;6155969;23;20159;-85
2024/03/06 16:23:37;;;;;;;14.50;2.17;;;18.30;62.50;;;;;;6129474;23;20188;-85
2024/03/06 16:26:03;;;;;;;17.88;2.03;;;18.30;61.90;;;;;;6131975;23;20172;-85
2024/03/06 16:28:29;;;;;;;13.75;1.95;;;18.40;61.80;;;;;;6129951;23;20166;-86
2024/03/06 16:30:57;;;;;;;13.93;2.00;;;18.30;62.30;;;;;;6132809;23;20452;-86
2024/03/06 16:33:24;;;;;;;8.35;2.03;;;18.30;62.30;;;;;;6157797;23;20138;-86
2024/03/06 16:35:51;;;;;;;10.88;2.13;;;18.30;62.10;;;;;;6133423;23;20195;-88
2024/03/06 16:38:31;;;;;;;11.20;1.60;;;18.40;62.70;;;;;;6136298;23;20140;-85
2024/03/06 16:41:11;;;;;;;7.65;1.40;;;18.40;61.40;;;;;;6136704;23;20190;-86
2024/03/06 16:43:40;;;;;;;8.13;1.90;;;18.50;62.00;;;;;;6090958;23;20167;-87
2024/03/06 16:46:09;;;;;;;9.05;1.60;;;18.50;62.00;;;;;;6138614;23;20140;-86
2024/03/06 16:48:39;;;;;;;9.43;1.60;;;18.50;61.30;;;;;;6225643;22;20159;-84
2024/03/06 16:51:21;;;;;;;12.25;2.00;;;18.50;60.70;;;;;;6208515;22;20167;-86
2024/03/06 16:53:49;;;;;;;7.55;1.92;;;18.50;62.00;;;;;;6234581;22;20148;-85
2024/03/06 16:56:16;;;;;;;9.25;1.77;;;18.60;63.00;;;;;;6264149;22;20172;-87
2024/03/06 16:58:42;;;;;;;8.73;1.45;;;18.70;62.40;;;;;;6260849;22;20124;-86
2024/03/06 17:01:10;;;;;;;7.63;1.48;;;18.60;61.00;;;;;;6258395;22;20171;-85
2024/03/06 17:03:37;;;;;;;8.25;1.75;;;18.70;60.30;;;;;;6182929;22;20152;-85
2024/03/06 17:06:04;;;;;;;7.75;1.60;;;18.70;60.70;;;;;;6232934;22;20160;-84
2024/03/06 17:08:35;;;;;;;6.30;1.92;;;18.70;60.60;;;;;;6285485;22;20166;-84
2024/03/06 17:11:03;;;;;;;8.38;1.88;;;18.70;60.10;;;;;;6284826;22;20159;-86
2024/03/06 17:13:31;;;;;;;5.47;1.70;;;18.70;59.10;;;;;;6233879;22;20163;-85
2024/03/06 17:15:58;;;;;;;7.13;1.60;;;18.80;58.70;;;;;;6234461;22;20171;-83
2024/03/06 17:18:24;;;;;;;5.85;1.40;;;18.70;59.40;;;;;;6288304;22;20140;-85
2024/03/06 17:20:52;;;;;;;3.45;1.30;;;18.80;60.20;;;;;;6286368;22;20144;-85
2024/03/06 17:23:18;;;;;;;8.80;1.75;;;18.80;59.60;;;;;;6262328;22;20141;-85
2024/03/06 17:25:46;;;;;;;7.93;1.50;;;18.80;61.40;;;;;;6260309;22;20222;-85
2024/03/06 17:28:17;;;;;;;6.53;1.80;;;18.80;62.40;;;;;;6285691;22;20172;-83
2024/03/06 17:30:48;;;;;;;8.05;1.98;;;18.80;61.60;;;;;;6211103;22;20614;-88
2024/03/06 17:33:15;;;;;;;7.88;1.92;;;18.90;61.30;;;;;;6291446;22;20139;-88
2024/03/06 17:36:13;;;;;;;;;;;;;;;;;;;;;
2024/03/06 17:38:46;;;;;;;6.60;1.60;;;18.90;60.70;;;;;;6124026;23;20149;-86
2024/03/06 19:25:09;;;;;;;8.63;1.58;;;18.80;61.50;;;;;;6352353;22;20311;-87
2024/03/06 19:27:37;;;;;;;4.72;1.70;;;18.80;64.00;;;;;;6257031;22;20151;-86
2024/03/06 19:30:11;;;;;;;9.07;1.60;;;18.80;62.90;;;;;;6259686;22;20159;-86
2024/03/06 19:32:37;;;;;;;9.20;1.88;;;18.70;64.40;;;;;;6251834;22;20174;-85
2024/03/06 19:35:04;;;;;;;8.88;1.65;;;18.80;62.20;;;;;;6224318;22;20163;-85
2024/03/06 19:37:33;;;;;;;6.38;1.55;;;18.80;62.10;;;;;;6222256;22;20235;-86
2024/03/06 19:40:00;;;;;;;6.35;1.60;;;18.70;61.80;;;;;;6222996;22;20573;-86
2024/03/06 19:42:26;;;;;;;7.45;1.67;;;18.70;59.10;;;;;;6223225;22;20148;-85
2024/03/06 19:44:51;;;;;;;5.88;1.83;;;18.70;60.80;;;;;;6222035;22;20235;-86
2024/03/06 19:47:17;;;;;;;5.80;1.48;;;18.70;60.50;;;;;;6222548;22;20231;-87
2024/03/06 19:49:43;;;;;;;6.18;1.98;;;18.70;62.20;;;;;;6221886;22;20160;-85
2024/03/06 19:52:11;;;;;;;12.00;1.75;;;18.70;61.60;;;;;;6247738;22;20160;-86
2024/03/06 19:54:37;;;;;;;5.95;1.70;;;18.70;62.50;;;;;;6247440;22;20512;-85
2024/03/06 19:57:06;;;;;;;8.77;1.65;;;18.70;62.40;;;;;;6235693;22;20187;-87
2024/03/06 19:59:33;;;;;;;9.05;1.48;;;18.70;61.50;;;;;;6255150;22;20120;-85
2024/03/06 20:02:02;;;;;;;5.80;1.40;;;18.70;61.40;;;;;;6255309;22;20128;-86
2024/03/06 20:04:31;;;;;;;6.40;1.70;;;18.70;62.30;;;;;;6255985;22;20148;-87
2024/03/06 20:06:56;;;;;;;9.68;1.60;;;18.70;63.80;;;;;;6255017;22;20159;-86
2024/03/06 20:09:27;;;;;;;6.38;1.52;;;18.70;58.70;;;;;;6279537;22;20148;-85
2024/03/06 20:11:54;;;;;;;6.35;1.70;;;18.70;60.70;;;;;;6204359;22;20238;-86
2024/03/06 20:14:23;;;;;;;6.95;1.40;;;18.70;61.20;;;;;;6259323;22;20163;-84
2024/03/06 20:16:49;;;;;;;7.18;1.98;;;18.70;60.50;;;;;;6259567;22;20164;-84
2024/03/06 20:19:19;;;;;;;6.38;1.48;;;18.70;61.60;;;;;;6258869;22;20541;-86
2024/03/06 20:21:47;;;;;;;6.63;1.70;;;18.70;63.20;;;;;;6206483;22;20190;-87
2024/03/06 20:24:14;;;;;;;5.75;1.35;;;18.60;62.20;;;;;;6254868;22;20574;-85
2024/03/06 20:26:41;;;;;;;4.95;1.60;;;18.60;61.20;;;;;;6253797;22;20218;-85
2024/03/06 20:29:07;;;;;;;3.22;1.30;;;18.60;61.70;;;;;;6253738;22;20239;-86
2024/03/06 20:31:33;;;;;;;12.52;2.22;;;18.60;61.50;;;;;;6281712;22;20139;-85
2024/03/06 20:34:01;;;;;;;4.22;1.45;;;18.60;63.00;;;;;;6256528;22;20214;-85
2024/03/06 20:36:26;;;;;;;4.43;1.45;;;18.50;60.90;;;;;;6205358;22;20199;-86
2024/03/06 20:39:01;;;;;;;8.85;1.92;;;18.60;61.80;;;;;;6283609;22;20202;-86
2024/03/06 20:41:29;;;;;;;5.95;1.38;;;18.60;60.80;;;;;;6172376;23;20158;-85
2024/03/06 20:43:55;;;;;;;6.78;1.52;;;18.60;62.20;;;;;;6148854;23;20254;-85
2024/03/06 20:46:23;;;;;;;6.13;1.30;;;18.60;62.10;;;;;;6145178;23;20162;-86
2024/03/06 20:48:51;;;;;;;4.55;1.33;;;18.50;62.70;;;;;;6164257;23;20158;-87
2024/03/06 20:51:20;;;;;;;4.10;1.40;;;18.50;62.80;;;;;;6188940;23;20162;-86
2024/03/06 20:53:46;;;;;;;6.50;1.45;;;18.50;62.50;;;;;;6188292;23;20220;-85
2024/03/06 20:56:11;;;;;;;6.75;1.35;;;18.50;62.70;;;;;;6188757;23;20201;-85
2024/03/06 20:58:37;;;;;;;3.47;1.45;;;18.50;63.40;;;;;;6188891;23;20621;-85
2024/03/06 21:01:03;;;;;;;3.72;1.13;;;18.40;63.80;;;;;;6164145;23;20161;-86
2024/03/06 21:03:29;;;;;;;3.10;1.33;;;18.50;64.10;;;;;;6188824;23;20216;-85
2024/03/06 21:05:55;;;;;;;5.15;1.63;;;18.40;64.90;;;;;;6139489;23;20594;-85
2024/03/06 21:08:21;;;;;;;6.95;1.55;;;18.40;65.10;;;;;;6139514;23;20200;-85
2024/03/06 21:10:47;;;;;;;4.78;1.20;;;18.40;64.80;;;;;;6163803;23;20165;-86